Time;durP1;ratioP1;P1;durP2;ratioP2;P2;SDS_P1;SDS_P2;PMS_P1;PMS_P2;Temp;Humidity;BMP_temperature;BMP_pressure;BME280_temperature;BME280_humidity;BME280_pressure;Samples;Min_cycle;Max_cycle;Signal;HPM_P1;HPM_P2
2022/06/21 00:00:28;;;;;;;4.87;3.80;;;15.10;1.00;;;;;;5047172;28;20468;-57
2022/06/21 00:02:59;;;;;;;4.10;3.03;;;15.10;1.00;;;;;;5050245;28;20533;-57
2022/06/21 00:05:29;;;;;;;3.70;3.40;;;15.10;1.00;;;;;;5049940;28;21968;-54
2022/06/21 00:07:56;;;;;;;4.23;3.27;;;15.10;1.00;;;;;;5049898;28;20473;-53
2022/06/21 00:10:21;;;;;;;4.77;3.60;;;15.20;1.00;;;;;;5049102;28;20431;-55
2022/06/21 00:15:43;;;;;;;4.60;3.20;;;15.20;1.00;;;;;;5046172;28;20192;-56
2022/06/21 00:18:14;;;;;;;5.17;2.90;;;15.30;1.00;;;;;;5050556;28;20481;-53
2022/06/21 00:20:40;;;;;;;6.63;3.00;;;15.20;1.00;;;;;;5050849;28;20473;-56
2022/06/21 00:23:12;;;;;;;7.50;4.10;;;15.20;1.00;;;;;;5055308;28;20450;-57
2022/06/21 00:25:37;;;;;;;4.90;3.10;;;15.20;1.00;;;;;;5049912;28;20584;-55
2022/06/21 00:28:24;;;;;;;7.37;3.40;;;15.20;1.00;;;;;;5049378;28;20473;-54
2022/06/21 00:30:51;;;;;;;3.73;3.40;;;15.10;1.00;;;;;;5049418;28;20180;-56
2022/06/21 00:33:37;;;;;;;3.90;3.60;;;15.10;1.00;;;;;;5049614;28;20450;-53
2022/06/21 00:36:04;;;;;;;4.13;3.43;;;15.00;1.00;;;;;;5049373;28;20436;-57
2022/06/21 00:38:34;;;;;;;3.17;2.80;;;14.90;1.00;;;;;;5050232;28;20447;-54
2022/06/21 00:41:04;;;;;;;5.50;3.73;;;14.90;1.00;;;;;;5054308;28;20976;-53
2022/06/21 00:43:33;;;;;;;3.60;3.30;;;14.90;1.00;;;;;;5049517;28;20457;-55
2022/06/21 00:45:59;;;;;;;5.60;3.40;;;14.90;1.00;;;;;;5049061;28;20545;-55
2022/06/21 00:48:41;;;;;;;5.80;3.83;;;14.90;1.00;;;;;;5047333;28;20467;-54
2022/06/21 00:51:17;;;;;;;9.37;3.80;;;14.80;1.00;;;;;;5048952;28;20512;-55
2022/06/21 00:53:53;;;;;;;4.00;3.10;;;14.80;1.00;;;;;;5049378;28;20796;-53
2022/06/21 00:56:27;;;;;;;12.33;4.67;;;14.80;1.00;;;;;;5049594;28;21134;-55
2022/06/21 00:58:53;;;;;;;4.00;2.90;;;14.80;1.00;;;;;;5050816;28;20459;-56
2022/06/21 01:01:29;;;;;;;4.17;3.20;;;14.80;1.00;;;;;;5049034;28;20512;-57
2022/06/21 01:04:10;;;;;;;4.70;3.70;;;14.70;1.00;;;;;;5049634;28;20183;-53
2022/06/21 01:06:40;;;;;;;4.20;3.30;;;14.70;1.00;;;;;;5048158;28;20511;-54
2022/06/21 01:09:15;;;;;;;3.53;3.20;;;14.60;1.00;;;;;;5049639;28;20997;-56
2022/06/21 01:14:58;;;;;;;5.57;4.53;;;14.50;1.00;;;;;;5046497;28;20442;-55
2022/06/21 01:20:55;;;;;;;7.97;3.83;;;14.40;1.00;;;;;;5029737;28;20453;-56
2022/06/21 01:23:59;;;;;;;3.90;3.57;;;14.50;1.00;;;;;;5050109;28;20800;-54
2022/06/21 01:26:46;;;;;;;5.27;2.93;;;14.30;1.00;;;;;;5057282;28;20786;-56
2022/06/21 01:29:16;;;;;;;5.37;3.00;;;14.20;1.00;;;;;;5049627;28;20512;-57
2022/06/21 01:35:28;;;;;;;4.73;3.20;;;14.30;1.00;;;;;;5019967;28;20475;-56
2022/06/21 01:40:27;;;;;;;4.10;3.07;;;14.30;1.00;;;;;;5053009;28;20848;-55
2022/06/21 01:46:05;;;;;;;9.20;3.63;;;14.30;1.00;;;;;;5055724;28;20469;-54
2022/06/21 01:48:53;;;;;;;4.67;3.60;;;12.40;1.00;;;;;;5052707;28;20457;-56
2022/06/21 01:55:01;;;;;;;6.60;3.33;;;14.30;1.00;;;;;;4995595;28;20449;-54
2022/06/21 02:01:00;;;;;;;4.97;3.53;;;14.30;1.00;;;;;;5003700;28;20461;-55
2022/06/21 02:06:04;;;;;;;3.67;3.27;;;14.20;1.00;;;;;;5052430;28;20946;-54
2022/06/21 02:08:42;;;;;;;5.03;3.53;;;14.30;1.00;;;;;;5051906;28;20497;-55
2022/06/21 02:11:14;;;;;;;4.33;3.70;;;14.30;1.00;;;;;;5052046;28;20950;-56
2022/06/21 02:20:52;;;;;;;4.27;3.83;;;14.10;1.00;;;;;;4949053;28;20454;-54
2022/06/21 02:30:18;;;;;;;3.70;3.40;;;14.00;1.00;;;;;;4975424;28;20437;-55
2022/06/21 02:36:23;;;;;;;4.53;3.10;;;13.90;1.00;;;;;;5001221;28;20537;-55
2022/06/21 02:41:40;;;;;;;9.90;3.80;;;13.80;1.00;;;;;;5047994;28;20446;-56
2022/06/21 02:44:30;;;;;;;4.83;4.33;;;13.80;1.00;;;;;;5048475;28;20839;-54
2022/06/21 02:50:44;;;;;;;4.90;3.80;;;14.00;1.00;;;;;;4955648;28;20574;-56
2022/06/21 02:53:19;;;;;;;5.00;3.70;;;13.90;1.00;;;;;;5011639;28;20865;-55
2022/06/21 02:55:54;;;;;;;4.40;4.10;;;13.90;1.00;;;;;;5008963;28;20475;-53
2022/06/21 03:05:22;;;;;;;6.37;3.80;;;14.10;1.00;;;;;;4978717;28;20568;-55
2022/06/21 03:11:14;;;;;;;6.20;3.30;;;14.00;1.00;;;;;;4984576;28;20445;-53
2022/06/21 03:14:01;;;;;;;4.10;3.60;;;14.10;1.00;;;;;;5050826;28;20446;-56
2022/06/21 03:16:28;;;;;;;5.87;3.83;;;14.00;1.00;;;;;;5050434;28;20431;-56
2022/06/21 03:19:05;;;;;;;3.20;2.90;;;14.10;1.00;;;;;;5056508;28;20437;-53
2022/06/21 03:21:35;;;;;;;5.20;3.67;;;14.10;1.00;;;;;;5047923;28;20469;-56
2022/06/21 03:24:12;;;;;;;5.67;3.87;;;14.10;1.00;;;;;;5051150;28;20989;-53
2022/06/21 03:30:16;;;;;;;4.87;3.73;;;14.20;1.00;;;;;;4985278;28;20783;-53
2022/06/21 03:36:12;;;;;;;4.70;4.27;;;14.20;1.00;;;;;;4952651;28;20800;-55
2022/06/21 03:39:18;;;;;;;3.87;3.50;;;14.30;1.00;;;;;;5027854;28;20443;-56
2022/06/21 03:45:23;;;;;;;4.07;3.30;;;14.40;1.00;;;;;;4945400;28;20454;-56
2022/06/21 03:51:24;;;;;;;4.97;2.93;;;14.50;1.00;;;;;;5008574;28;20442;-53
2022/06/21 03:54:11;;;;;;;4.30;3.53;;;14.60;1.00;;;;;;5050271;28;20440;-56
2022/06/21 03:56:45;;;;;;;5.03;3.37;;;14.40;1.00;;;;;;5049810;28;20541;-56
2022/06/21 03:59:36;;;;;;;4.60;3.20;;;14.40;1.00;;;;;;5049195;28;20445;-55
2022/06/21 04:06:10;;;;;;;5.53;3.23;;;14.30;1.00;;;;;;4985624;28;20481;-54
2022/06/21 04:15:20;;;;;;;8.20;4.10;;;14.30;1.00;;;;;;5011783;28;20570;-56
2022/06/21 04:21:27;;;;;;;4.90;3.70;;;14.30;1.00;;;;;;4987977;28;20442;-55
2022/06/21 04:30:17;;;;;;;6.70;3.97;;;14.50;1.00;;;;;;5007591;28;20480;-56
2022/06/21 04:32:51;;;;;;;5.50;4.10;;;14.60;1.00;;;;;;5049801;28;20784;-54
2022/06/21 04:35:35;;;;;;;5.70;3.53;;;14.70;1.00;;;;;;5047425;28;20438;-54
2022/06/21 04:38:10;;;;;;;7.00;3.97;;;14.80;1.00;;;;;;5049056;28;20525;-57
2022/06/21 04:40:54;;;;;;;4.83;3.70;;;14.80;1.00;;;;;;5045762;28;20469;-55
2022/06/21 04:43:32;;;;;;;6.33;3.67;;;15.00;1.00;;;;;;5047376;28;20531;-53
2022/06/21 04:46:29;;;;;;;3.70;3.17;;;15.00;1.00;;;;;;5050083;28;20474;-55
2022/06/21 04:49:19;;;;;;;5.97;3.50;;;15.20;1.00;;;;;;5049507;28;20800;-55
2022/06/21 04:52:20;;;;;;;7.63;4.20;;;15.10;1.00;;;;;;5050646;28;20960;-55
2022/06/21 04:54:46;;;;;;;4.67;3.47;;;15.30;1.00;;;;;;5027504;28;20450;-52
2022/06/21 04:57:14;;;;;;;3.40;3.10;;;15.10;1.00;;;;;;5048943;28;20909;-56
2022/06/21 04:59:50;;;;;;;5.50;3.57;;;15.10;1.00;;;;;;5054290;28;20179;-53
2022/06/21 05:02:40;;;;;;;9.37;4.40;;;15.20;1.00;;;;;;5069256;28;20780;-54
2022/06/21 05:05:25;;;;;;;5.43;3.27;;;15.10;1.00;;;;;;5063765;28;20489;-56
2022/06/21 05:08:19;;;;;;;6.83;3.20;;;15.00;1.00;;;;;;5049515;28;20534;-54
2022/06/21 05:10:50;;;;;;;7.77;3.30;;;14.90;1.00;;;;;;5044104;28;20824;-55
2022/06/21 05:13:43;;;;;;;5.40;3.30;;;15.10;1.00;;;;;;5055773;28;20454;-55
2022/06/21 05:16:36;;;;;;;5.90;3.70;;;15.20;1.00;;;;;;5046816;28;20439;-53
2022/06/21 05:19:12;;;;;;;8.63;4.37;;;15.20;1.00;;;;;;5046098;28;20478;-57
2022/06/21 05:21:42;;;;;;;4.47;3.30;;;15.30;1.00;;;;;;5049054;28;20438;-56
2022/06/21 05:24:10;;;;;;;4.87;3.50;;;15.50;1.00;;;;;;5049150;28;20445;-56
2022/06/21 05:27:04;;;;;;;3.63;2.90;;;15.40;1.00;;;;;;5049039;28;20438;-56
2022/06/21 05:29:35;;;;;;;4.77;4.37;;;15.30;1.00;;;;;;5038717;28;20534;-56
2022/06/21 05:32:05;;;;;;;10.20;3.83;;;15.30;1.00;;;;;;5048946;28;20435;-56
2022/06/21 05:34:37;;;;;;;4.70;3.20;;;15.50;1.00;;;;;;5048650;28;20438;-56
2022/06/21 05:37:14;;;;;;;6.47;3.40;;;15.50;1.00;;;;;;5049091;28;20446;-56
2022/06/21 05:39:46;;;;;;;4.23;3.17;;;16.10;1.00;;;;;;5048203;28;21183;-58
2022/06/21 05:42:14;;;;;;;4.03;3.33;;;16.10;1.00;;;;;;5048703;28;20526;-54
2022/06/21 05:44:50;;;;;;;6.80;3.33;;;16.10;1.00;;;;;;5048517;28;20434;-56
2022/06/21 05:47:38;;;;;;;6.70;3.67;;;16.00;1.00;;;;;;5048341;28;20474;-55
2022/06/21 05:50:07;;;;;;;7.77;4.30;;;15.80;1.00;;;;;;5045140;28;20453;-55
2022/06/21 05:52:36;;;;;;;6.43;3.43;;;15.70;1.00;;;;;;5048545;28;20424;-55
2022/06/21 05:55:11;;;;;;;4.23;3.83;;;15.60;1.00;;;;;;5047595;28;20628;-55
2022/06/21 05:57:42;;;;;;;6.00;3.63;;;15.60;1.00;;;;;;5048109;28;20998;-56
2022/06/21 06:00:27;;;;;;;5.33;3.60;;;15.80;1.00;;;;;;5049030;28;20838;-54
2022/06/21 06:02:58;;;;;;;4.33;3.90;;;15.80;1.00;;;;;;5048540;28;20446;-57
2022/06/21 06:05:30;;;;;;;7.43;4.03;;;16.00;1.00;;;;;;5048604;28;20852;-55
2022/06/21 06:08:01;;;;;;;7.30;3.70;;;16.20;1.00;;;;;;5048163;28;20554;-55
2022/06/21 06:10:28;;;;;;;4.00;3.57;;;16.30;1.00;;;;;;5048412;28;20447;-54
2022/06/21 06:13:01;;;;;;;12.13;3.57;;;16.30;1.00;;;;;;5052049;28;20430;-55
2022/06/21 06:15:37;;;;;;;4.83;3.93;;;16.10;1.00;;;;;;5052551;28;21120;-55
2022/06/21 06:18:06;;;;;;;7.20;3.70;;;16.30;1.00;;;;;;5052102;28;20489;-55
2022/06/21 06:20:32;;;;;;;7.33;3.80;;;16.60;1.00;;;;;;5052275;28;20454;-54
2022/06/21 06:23:07;;;;;;;12.87;4.50;;;16.60;1.00;;;;;;5051586;28;20450;-55
2022/06/21 06:25:39;;;;;;;4.40;4.00;;;16.80;1.00;;;;;;5050468;28;20644;-55
2022/06/21 06:28:14;;;;;;;4.77;3.53;;;16.70;1.00;;;;;;5051533;28;20963;-55
2022/06/21 06:30:44;;;;;;;7.60;3.80;;;16.50;1.00;;;;;;5050319;28;20898;-56
2022/06/21 06:33:30;;;;;;;6.37;3.80;;;16.50;1.00;;;;;;5055564;28;20451;-54
2022/06/21 06:35:59;;;;;;;7.10;3.80;;;16.60;1.00;;;;;;5051212;28;20506;-56
2022/06/21 06:38:26;;;;;;;6.57;3.43;;;17.10;1.00;;;;;;5051723;28;20847;-55
2022/06/21 06:41:26;;;;;;;5.60;3.80;;;17.40;1.00;;;;;;5051215;28;20458;-55
2022/06/21 06:44:04;;;;;;;5.47;3.47;;;17.60;1.00;;;;;;5050410;28;20486;-56
2022/06/21 06:46:34;;;;;;;4.90;3.57;;;17.70;1.00;;;;;;5051041;28;20549;-54
2022/06/21 06:49:35;;;;;;;6.17;3.07;;;17.60;1.00;;;;;;5051337;28;20520;-55
2022/06/21 06:52:26;;;;;;;4.30;3.00;;;17.60;1.00;;;;;;5050730;28;20421;-54
2022/06/21 06:55:13;;;;;;;5.20;2.80;;;18.10;1.00;;;;;;5055986;28;20789;-53
2022/06/21 06:57:47;;;;;;;3.83;3.40;;;18.40;1.00;;;;;;5056755;28;20504;-54
2022/06/21 07:00:15;;;;;;;5.57;2.97;;;18.00;1.00;;;;;;5056990;28;20537;-56
2022/06/21 07:03:10;;;;;;;5.20;3.60;;;18.00;1.00;;;;;;5052686;28;20453;-55
2022/06/21 07:05:39;;;;;;;3.87;2.93;;;;;;;;;;5049409;28;20445;-54
2022/06/21 07:08:32;;;;;;;4.63;3.30;;;18.40;1.00;;;;;;5055006;28;20465;-54
2022/06/21 07:11:04;;;;;;;3.97;2.90;;;17.60;1.00;;;;;;5050792;28;20426;-55
2022/06/21 07:13:33;;;;;;;4.63;3.40;;;17.40;1.00;;;;;;5053213;28;20445;-57
2022/06/21 07:16:05;;;;;;;6.53;3.50;;;;;;;;;;5051000;28;20884;-56
2022/06/21 07:18:38;;;;;;;7.90;3.67;;;17.70;1.00;;;;;;5050832;28;20446;-55
2022/06/21 07:21:09;;;;;;;5.40;3.43;;;17.60;1.00;;;;;;5057745;28;20473;-56
2022/06/21 07:23:35;;;;;;;3.93;2.90;;;17.70;1.00;;;;;;5052248;28;20450;-55
2022/06/21 07:26:39;;;;;;;3.37;3.07;;;17.90;1.00;;;;;;5052199;28;20442;-54
2022/06/21 07:29:27;;;;;;;4.43;3.07;;;18.30;1.00;;;;;;5051800;28;20466;-53
2022/06/21 07:31:59;;;;;;;4.00;3.13;;;18.40;1.00;;;;;;5050845;28;20437;-55
2022/06/21 07:34:37;;;;;;;4.20;3.00;;;18.70;1.00;;;;;;5048861;28;20446;-54
2022/06/21 07:37:13;;;;;;;4.50;2.70;;;18.90;1.00;;;;;;5048041;28;20454;-54
2022/06/21 07:39:48;;;;;;;4.60;2.60;;;18.90;1.00;;;;;;5050637;28;20435;-55
2022/06/21 07:42:20;;;;;;;3.70;2.60;;;18.90;1.00;;;;;;5050507;28;20831;-55
2022/06/21 07:44:58;;;;;;;6.23;2.77;;;18.70;1.00;;;;;;5050073;28;20430;-55
2022/06/21 07:47:29;;;;;;;8.03;3.03;;;19.30;1.00;;;;;;5050112;28;20474;-56
2022/06/21 07:50:01;;;;;;;3.53;2.83;;;19.30;1.00;;;;;;5050311;28;20470;-57
2022/06/21 07:53:00;;;;;;;3.80;3.00;;;19.50;1.00;;;;;;5050162;28;20494;-54
2022/06/21 07:55:38;;;;;;;6.07;2.77;;;18.40;1.00;;;;;;5044737;28;20446;-56
2022/06/21 07:58:21;;;;;;;3.70;2.57;;;18.60;1.00;;;;;;5050218;28;20453;-54
2022/06/21 08:06:43;;;;;;;2.77;2.53;;;18.60;1.00;;;;;;5050148;28;20934;-54
2022/06/21 08:09:37;;;;;;;2.67;2.47;;;18.60;1.00;;;;;;5056066;28;20471;-54
2022/06/21 08:12:03;;;;;;;3.53;2.33;;;18.90;1.00;;;;;;5049697;28;20492;-56
2022/06/21 08:14:31;;;;;;;4.67;2.80;;;18.70;1.00;;;;;;5049890;28;20430;-56
2022/06/21 08:17:08;;;;;;;5.20;2.63;;;18.60;1.00;;;;;;5049590;28;20475;-53
2022/06/21 08:19:33;;;;;;;2.80;2.33;;;19.30;1.00;;;;;;5049869;28;20434;-55
2022/06/21 08:22:13;;;;;;;5.20;2.30;;;19.30;1.00;;;;;;5050295;28;20933;-55
2022/06/21 08:24:52;;;;;;;3.77;2.53;;;19.30;1.00;;;;;;5051437;28;20188;-54
2022/06/21 08:27:47;;;;;;;7.67;4.10;;;19.00;1.00;;;;;;5058717;28;20808;-55
2022/06/21 08:30:20;;;;;;;7.73;2.87;;;18.90;1.00;;;;;;5056071;28;20523;-56
2022/06/21 08:33:15;;;;;;;3.40;2.37;;;18.70;1.00;;;;;;5049666;28;20559;-56
2022/06/21 08:35:49;;;;;;;3.90;2.87;;;18.90;1.00;;;;;;5047803;28;20742;-58
2022/06/21 08:38:25;;;;;;;3.00;2.60;;;18.90;1.00;;;;;;5049330;28;20449;-55
2022/06/21 08:44:30;;;;;;;5.10;2.80;;;19.40;1.00;;;;;;5044536;28;20508;-53
2022/06/21 08:47:32;;;;;;;2.80;2.20;;;19.20;1.00;;;;;;5048802;28;20470;-54
2022/06/21 08:50:10;;;;;;;3.50;2.57;;;19.30;1.00;;;;;;5049536;28;20446;-54
2022/06/21 08:52:53;;;;;;;2.73;2.53;;;19.40;1.00;;;;;;5055215;28;20668;-56
2022/06/21 08:55:51;;;;;;;2.77;2.50;;;19.70;1.00;;;;;;5049375;28;20916;-53
2022/06/21 08:58:58;;;;;;;3.20;2.70;;;20.40;1.00;;;;;;5047458;28;20478;-56
2022/06/21 09:01:55;;;;;;;2.93;2.43;;;20.40;1.00;;;;;;5045116;28;20461;-53
2022/06/21 09:04:31;;;;;;;4.00;2.80;;;;;;;;;;5047198;28;20453;-52
2022/06/21 09:07:21;;;;;;;3.40;2.50;;;20.30;1.00;;;;;;5049203;28;20438;-56
2022/06/21 09:10:11;;;;;;;3.93;2.73;;;19.90;1.00;;;;;;5049209;28;20438;-53
2022/06/21 09:13:06;;;;;;;5.80;3.67;;;20.30;1.00;;;;;;5048889;28;20439;-53
2022/06/21 09:15:44;;;;;;;6.30;2.40;;;20.30;1.00;;;;;;5048128;28;20537;-53
2022/06/21 09:18:17;;;;;;;3.43;2.60;;;20.40;1.00;;;;;;5052276;28;20451;-55
2022/06/21 09:20:47;;;;;;;2.43;2.17;;;20.00;1.00;;;;;;5052613;28;20965;-54
2022/06/21 09:23:31;;;;;;;3.77;2.70;;;19.90;1.00;;;;;;5048841;28;20512;-53
2022/06/21 09:26:23;;;;;;;2.87;2.00;;;19.90;1.00;;;;;;5049006;28;20540;-55
2022/06/21 09:29:02;;;;;;;2.97;2.30;;;21.10;1.00;;;;;;5046944;28;20505;-54
2022/06/21 09:31:39;;;;;;;8.70;3.60;;;21.30;1.00;;;;;;5048099;28;20416;-55
2022/06/21 09:34:26;;;;;;;3.53;3.23;;;20.70;1.00;;;;;;5049098;28;20430;-55
2022/06/21 09:37:01;;;;;;;7.70;3.83;;;20.60;1.00;;;;;;5048874;28;20439;-54
2022/06/21 09:39:54;;;;;;;6.50;3.33;;;20.50;1.00;;;;;;5046821;28;20450;-55
2022/06/21 09:42:31;;;;;;;3.80;2.83;;;20.80;1.00;;;;;;5048712;28;20417;-55
2022/06/21 09:45:21;;;;;;;5.80;2.40;;;20.70;1.00;;;;;;5049026;28;20537;-55
2022/06/21 09:48:17;;;;;;;6.07;2.40;;;20.70;1.00;;;;;;5051350;28;20474;-56
2022/06/21 09:51:20;;;;;;;2.80;2.60;;;20.70;1.00;;;;;;5052026;28;20449;-56
2022/06/21 09:54:18;;;;;;;5.70;2.60;;;21.90;1.00;;;;;;5058332;28;20439;-53
2022/06/21 09:56:56;;;;;;;3.93;3.00;;;21.90;1.00;;;;;;5051961;28;20426;-54
2022/06/21 10:00:05;;;;;;;3.10;2.70;;;21.30;1.00;;;;;;5052572;28;20512;-55
2022/06/21 10:02:56;;;;;;;3.37;2.30;;;20.80;1.00;;;;;;5051858;28;20413;-54
2022/06/21 10:05:42;;;;;;;2.63;2.20;;;21.00;1.00;;;;;;5052221;28;20527;-56
2022/06/21 10:08:36;;;;;;;2.47;2.17;;;21.00;1.00;;;;;;5052927;28;21348;-54
2022/06/21 10:11:26;;;;;;;5.23;2.80;;;21.20;1.00;;;;;;5050681;28;20453;-55
2022/06/21 10:14:01;;;;;;;2.70;2.07;;;21.80;1.00;;;;;;5052224;28;20435;-56
2022/06/21 10:16:53;;;;;;;2.87;2.30;;;21.70;1.00;;;;;;5055668;28;20501;-52
2022/06/21 10:19:32;;;;;;;2.80;2.60;;;21.50;1.00;;;;;;5050951;28;20450;-53
2022/06/21 10:22:20;;;;;;;3.23;2.57;;;21.70;1.00;;;;;;5052140;28;20445;-55
2022/06/21 10:25:19;;;;;;;2.73;2.37;;;22.00;1.00;;;;;;5052288;28;20484;-57
2022/06/21 10:28:10;;;;;;;3.47;2.50;;;22.10;1.00;;;;;;5053327;28;20441;-55
2022/06/21 10:30:49;;;;;;;3.37;2.83;;;22.10;1.00;;;;;;5050118;28;20477;-52
2022/06/21 10:33:39;;;;;;;7.37;2.60;;;22.00;1.00;;;;;;5049314;28;20921;-56
2022/06/21 10:36:13;;;;;;;2.90;2.50;;;21.40;1.00;;;;;;5051416;28;20442;-54
2022/06/21 10:38:57;;;;;;;5.13;4.07;;;21.30;1.00;;;;;;5052006;28;20796;-56
2022/06/21 10:44:53;;;;;;;3.57;2.00;;;21.20;1.00;;;;;;5049341;28;20488;-53
2022/06/21 10:47:52;;;;;;;3.60;2.60;;;21.70;1.00;;;;;;5051385;28;20472;-55
2022/06/21 10:50:42;;;;;;;2.90;2.50;;;21.70;1.00;;;;;;5049944;28;20409;-54
2022/06/21 10:53:26;;;;;;;3.93;2.50;;;21.70;1.00;;;;;;5053141;28;20438;-56
2022/06/21 10:58:58;;;;;;;5.30;2.40;;;21.80;1.00;;;;;;5051810;28;20771;-53
2022/06/21 11:01:40;;;;;;;3.23;2.50;;;22.20;1.00;;;;;;5050508;28;20424;-55
2022/06/21 11:04:32;;;;;;;4.10;2.70;;;22.20;1.00;;;;;;5049471;28;20439;-53
2022/06/21 11:07:07;;;;;;;2.77;2.57;;;22.10;1.00;;;;;;5050677;28;20442;-55
2022/06/21 11:09:58;;;;;;;4.03;2.70;;;21.60;1.00;;;;;;5051482;28;20437;-54
2022/06/21 11:15:35;;;;;;;5.27;2.57;;;21.70;1.00;;;;;;5049677;28;20882;-54
2022/06/21 11:18:21;;;;;;;4.33;2.70;;;22.00;1.00;;;;;;5050874;28;20537;-55
2022/06/21 11:20:49;;;;;;;2.50;2.30;;;22.00;1.00;;;;;;5051067;28;20441;-53
2022/06/21 11:23:52;;;;;;;3.93;2.00;;;21.90;1.00;;;;;;5050656;28;20468;-54
2022/06/21 11:26:31;;;;;;;5.47;2.27;;;21.90;1.00;;;;;;5047546;28;20462;-54
2022/06/21 11:29:34;;;;;;;5.03;3.30;;;22.30;1.00;;;;;;5050830;28;20484;-54
2022/06/21 11:32:22;;;;;;;2.93;2.50;;;22.40;1.00;;;;;;5064237;28;20775;-57
2022/06/21 11:34:59;;;;;;;2.50;2.30;;;22.50;1.00;;;;;;5051320;28;20796;-54
2022/06/21 11:37:39;;;;;;;3.97;2.30;;;22.40;1.00;;;;;;5050219;28;20906;-53
2022/06/21 11:40:27;;;;;;;5.07;2.33;;;22.40;1.00;;;;;;5057792;28;20974;-55
2022/06/21 11:42:55;;;;;;;3.33;2.07;;;22.80;1.00;;;;;;5048766;28;20512;-54
2022/06/21 11:45:36;;;;;;;3.07;1.70;;;23.00;1.00;;;;;;5050076;28;20483;-55
2022/06/21 11:48:31;;;;;;;2.90;2.20;;;23.00;1.00;;;;;;5050492;28;20959;-55
2022/06/21 11:51:11;;;;;;;4.77;2.30;;;23.00;1.00;;;;;;5047486;28;20508;-54
2022/06/21 11:53:58;;;;;;;3.00;1.90;;;23.20;1.00;;;;;;5050267;28;20434;-53
2022/06/21 11:56:26;;;;;;;3.60;2.10;;;23.10;1.00;;;;;;5049767;28;20438;-55
2022/06/21 11:58:58;;;;;;;3.37;2.30;;;22.80;1.00;;;;;;5050248;28;20580;-55
2022/06/21 12:01:35;;;;;;;3.90;2.10;;;22.50;1.00;;;;;;5050007;28;21018;-54
2022/06/21 12:04:37;;;;;;;4.70;2.00;;;22.60;1.00;;;;;;5045707;28;20525;-55
2022/06/21 12:07:08;;;;;;;3.37;2.00;;;22.80;1.00;;;;;;5049968;28;20543;-54
2022/06/21 12:09:56;;;;;;;3.40;1.90;;;22.70;1.00;;;;;;5047449;28;20824;-55
2022/06/21 12:12:43;;;;;;;2.23;1.80;;;22.60;1.00;;;;;;5050165;28;20439;-57
2022/06/21 12:15:39;;;;;;;4.00;1.87;;;22.60;1.00;;;;;;5047081;28;20405;-55
2022/06/21 12:18:10;;;;;;;4.80;2.03;;;22.60;1.00;;;;;;5045976;28;20469;-56
2022/06/21 12:20:55;;;;;;;3.60;2.37;;;22.80;1.00;;;;;;5050094;28;20438;-56
2022/06/21 12:23:23;;;;;;;2.80;1.87;;;22.70;1.00;;;;;;5046581;28;20405;-55
2022/06/21 12:25:50;;;;;;;3.10;1.87;;;22.80;1.00;;;;;;5048925;28;20509;-54
2022/06/21 12:28:20;;;;;;;4.57;2.00;;;23.10;1.00;;;;;;5049541;28;20565;-54
2022/06/21 12:30:47;;;;;;;2.03;1.43;;;23.00;1.00;;;;;;5058967;28;20442;-53
2022/06/21 12:33:15;;;;;;;3.13;1.97;;;23.00;1.00;;;;;;5049592;28;20461;-53
2022/06/21 12:35:50;;;;;;;4.47;2.20;;;22.90;1.00;;;;;;5046903;28;20496;-54
2022/06/21 12:38:22;;;;;;;3.20;2.10;;;23.10;1.00;;;;;;5049735;28;20442;-55
2022/06/21 12:41:11;;;;;;;5.93;2.27;;;23.10;1.00;;;;;;5047255;28;20451;-54
2022/06/21 12:43:55;;;;;;;6.87;2.40;;;23.30;1.00;;;;;;5048816;28;20426;-54
2022/06/21 12:46:32;;;;;;;2.50;1.40;;;23.40;1.00;;;;;;5049085;28;20938;-53
2022/06/21 12:49:28;;;;;;;2.87;1.60;;;23.40;1.00;;;;;;5048991;28;20467;-55
2022/06/21 12:52:07;;;;;;;1.60;1.50;;;23.10;1.00;;;;;;5047565;28;20417;-53
2022/06/21 12:54:48;;;;;;;2.80;2.50;;;22.90;1.00;;;;;;5049300;28;20446;-56
2022/06/21 12:57:42;;;;;;;2.00;1.50;;;22.90;1.00;;;;;;5052236;28;20864;-56
2022/06/21 13:00:33;;;;;;;4.30;2.00;;;23.00;1.00;;;;;;5048736;28;20441;-56
2022/06/21 13:03:16;;;;;;;2.77;1.80;;;23.00;1.00;;;;;;5047318;28;20460;-55
2022/06/21 13:06:12;;;;;;;2.53;2.07;;;23.00;1.00;;;;;;5050668;28;20471;-54
2022/06/21 13:08:56;;;;;;;3.43;2.23;;;23.00;1.00;;;;;;5050977;28;20462;-54
2022/06/21 13:11:40;;;;;;;3.67;2.00;;;23.20;1.00;;;;;;5049426;28;20438;-55
2022/06/21 13:14:30;;;;;;;3.50;2.00;;;23.20;1.00;;;;;;5044866;28;20443;-55
2022/06/21 13:17:30;;;;;;;2.90;2.03;;;23.30;1.00;;;;;;5053334;28;20523;-55
2022/06/21 13:20:27;;;;;;;3.00;1.80;;;23.40;1.00;;;;;;5050264;28;20438;-56
2022/06/21 13:23:01;;;;;;;2.20;1.70;;;23.70;1.00;;;;;;5053082;28;20413;-54
2022/06/21 13:25:45;;;;;;;3.27;1.60;;;23.70;1.00;;;;;;5053296;28;20571;-54
2022/06/21 13:28:39;;;;;;;1.90;1.67;;;23.60;1.00;;;;;;5052770;28;20828;-54
2022/06/21 13:31:33;;;;;;;4.33;1.60;;;23.40;1.00;;;;;;5053318;28;21011;-57
2022/06/21 13:34:06;;;;;;;3.40;2.23;;;23.30;1.00;;;;;;5049354;28;20436;-54
2022/06/21 13:36:40;;;;;;;3.53;1.60;;;23.30;1.00;;;;;;5052785;28;20525;-56
2022/06/21 13:39:24;;;;;;;2.00;1.70;;;23.30;1.00;;;;;;5052689;28;20936;-55
2022/06/21 13:44:59;;;;;;;2.10;1.90;;;23.50;1.00;;;;;;5051410;28;20423;-56
2022/06/21 13:47:48;;;;;;;3.53;1.63;;;23.50;1.00;;;;;;5052406;28;20599;-55
2022/06/21 13:50:17;;;;;;;2.43;1.63;;;23.60;1.00;;;;;;5052810;28;20430;-54
2022/06/21 13:52:57;;;;;;;2.20;2.00;;;23.70;1.00;;;;;;5053185;28;20443;-55
2022/06/21 13:55:44;;;;;;;4.77;1.80;;;23.60;1.00;;;;;;5052605;28;20466;-55
2022/06/21 13:58:35;;;;;;;2.80;1.80;;;23.70;1.00;;;;;;5056127;28;20419;-55
2022/06/21 14:01:06;;;;;;;6.33;2.00;;;23.90;1.00;;;;;;5049725;28;20413;-54
2022/06/21 14:03:40;;;;;;;3.00;1.87;;;23.80;1.00;;;;;;5052018;28;20413;-55
2022/06/21 14:06:26;;;;;;;2.70;1.80;;;23.90;1.00;;;;;;5052331;28;20434;-54
2022/06/21 14:09:04;;;;;;;2.83;2.07;;;24.20;1.00;;;;;;5050930;28;20871;-56
2022/06/21 14:11:36;;;;;;;3.20;1.80;;;24.70;1.00;;;;;;5053257;28;20530;-57
2022/06/21 14:14:15;;;;;;;2.30;1.60;;;25.40;1.00;;;;;;5050492;28;20452;-55
2022/06/21 14:16:49;;;;;;;2.90;1.70;;;28.60;1.00;;;;;;5052329;28;20450;-57
2022/06/21 14:19:26;;;;;;;4.27;1.57;;;30.40;1.00;;;;;;5051849;28;20460;-54
2022/06/21 14:21:55;;;;;;;3.80;1.90;;;30.40;1.00;;;;;;5052168;28;20847;-53
2022/06/21 14:24:33;;;;;;;3.00;1.57;;;30.40;1.00;;;;;;5049319;28;20406;-55
2022/06/21 14:27:11;;;;;;;1.90;1.73;;;29.90;1.00;;;;;;5051828;28;20417;-54
2022/06/21 14:30:00;;;;;;;1.80;1.40;;;30.70;1.00;;;;;;5063340;28;20942;-55
2022/06/21 14:32:41;;;;;;;2.00;1.27;;;30.00;1.00;;;;;;5048532;28;20537;-56
2022/06/21 14:35:28;;;;;;;2.13;1.20;;;30.90;1.00;;;;;;5050402;28;20434;-55
2022/06/21 14:38:35;;;;;;;3.70;1.43;;;32.10;1.00;;;;;;5051913;28;20417;-55
2022/06/21 14:41:10;;;;;;;3.37;1.53;;;32.40;1.00;;;;;;5049170;28;20762;-55
2022/06/21 14:43:57;;;;;;;2.10;1.53;;;31.40;1.00;;;;;;5052749;28;20417;-55
2022/06/21 14:46:56;;;;;;;3.00;1.60;;;30.10;1.00;;;;;;5050857;28;20470;-53
2022/06/21 14:49:47;;;;;;;2.10;1.33;;;29.50;1.00;;;;;;5051651;28;20470;-55
2022/06/21 14:52:37;;;;;;;1.70;1.30;;;29.60;1.00;;;;;;5051627;28;20439;-54
2022/06/21 14:55:27;;;;;;;4.37;1.60;;;30.00;1.00;;;;;;5051499;28;20488;-54
2022/06/21 14:58:12;;;;;;;1.77;1.47;;;30.00;1.00;;;;;;5051012;28;20470;-54
2022/06/21 15:00:43;;;;;;;2.70;1.87;;;31.00;1.00;;;;;;5051362;28;20434;-53
2022/06/21 15:03:19;;;;;;;2.07;1.87;;;31.10;1.00;;;;;;5047768;28;20448;-54
2022/06/21 15:06:15;;;;;;;4.43;1.60;;;31.10;1.00;;;;;;5053327;28;20424;-53
2022/06/21 15:08:47;;;;;;;5.80;1.83;;;30.90;1.00;;;;;;5050837;28;20457;-55
2022/06/21 15:11:52;;;;;;;3.20;1.57;;;30.10;1.00;;;;;;5047865;28;21128;-54
2022/06/21 15:14:11;;;;;;;3.80;2.07;;;29.50;1.00;;;;;;5054576;28;21154;-53
2022/06/21 15:17:05;;;;;;;2.73;1.70;;;29.10;1.00;;;;;;5050735;28;20766;-54
2022/06/21 15:19:56;;;;;;;3.13;1.50;;;29.20;1.00;;;;;;5051227;28;20970;-53
2022/06/21 15:22:31;;;;;;;4.67;1.77;;;29.20;1.00;;;;;;5051188;28;20466;-55
2022/06/21 15:25:20;;;;;;;2.47;1.70;;;29.70;1.00;;;;;;5050357;28;20857;-54
2022/06/21 15:27:59;;;;;;;3.00;1.70;;;30.10;1.00;;;;;;5054328;28;20466;-54
2022/06/21 15:30:28;;;;;;;5.20;1.63;;;30.00;1.00;;;;;;5055890;28;20958;-54
2022/06/21 15:32:59;;;;;;;1.83;1.63;;;28.60;1.00;;;;;;5050594;28;20422;-56
2022/06/21 15:35:45;;;;;;;2.90;1.63;;;28.30;1.00;;;;;;5050950;28;20412;-54
2022/06/21 15:38:12;;;;;;;2.80;2.00;;;27.90;1.00;;;;;;5049951;28;20447;-55
2022/06/21 15:40:46;;;;;;;2.80;2.00;;;28.00;1.00;;;;;;5050552;28;20453;-56
2022/06/21 15:43:37;;;;;;;3.73;2.00;;;28.00;1.00;;;;;;5050613;28;20413;-55
2022/06/21 15:46:12;;;;;;;2.57;1.70;;;28.80;1.00;;;;;;5047861;28;20477;-53
2022/06/21 15:51:41;;;;;;;2.33;1.70;;;29.90;1.00;;;;;;5049709;28;20546;-57
2022/06/21 15:54:39;;;;;;;3.50;2.00;;;31.40;1.00;;;;;;5047725;28;20434;-54
2022/06/21 15:57:24;;;;;;;3.27;1.40;;;32.40;1.00;;;;;;5048761;28;20447;-54
2022/06/21 16:00:05;;;;;;;2.00;1.20;;;32.60;1.00;;;;;;5048311;28;20503;-55
2022/06/21 16:02:44;;;;;;;2.77;1.57;;;32.60;1.00;;;;;;5049183;28;20481;-55
2022/06/21 16:05:31;;;;;;;2.00;1.30;;;33.70;1.00;;;;;;5050226;28;20499;-56